This is the latest recevied weather packets stored in our database for station/object VA2IEI-13. If no packets are shown the sender has not sent any weather packets the latest 10 day(s).
| Time | Temp. | Humidity | Pressure | Rain* | Wind** | Luminosity | Snow |
|---|---|---|---|---|---|---|---|
| 1777647038 | 6.11° C | 78% | 1011 hPa | 0 mm | - | - | - |
| 1777645268 | 5.56° C | 80% | 1010.9 hPa | 0 mm | - | - | - |
| 1777642244 | 5° C | 83% | 1010.6 hPa | 0 mm | - | - | - |
| 1777641674 | 5° C | 84% | 1010.5 hPa | 0 mm | - | - | - |
| 1777636874 | 3.89° C | 88% | 1010.3 hPa | 0 mm | - | - | - |
| 1777635062 | 3.33° C | 89% | 1010.2 hPa | 0 mm | - | - | - |
| 1777630831 | 3.33° C | 89% | 1009.9 hPa | 0 mm | - | - | - |
| 1777629616 | 3.33° C | 90% | 1009.7 hPa | 0 mm | - | - | - |
| 1777628470 | 3.33° C | 90% | 1009.7 hPa | 0 mm | - | - | - |
| 1777626656 | 3.33° C | 90% | 1009.5 hPa | 0 mm | - | - | - |
| 1777624862 | 3.33° C | 90% | 1009.5 hPa | 0 mm | - | - | - |
| 1777621222 | 3.89° C | 91% | 1009.2 hPa | 0 mm | - | - | - |
| 1777588832 | 8.89° C | 94% | 1008.6 hPa | 2.03 mm | - | - | - |
| 1777585879 | 9.44° C | 94% | 1008.7 hPa | 2.29 mm | - | - | - |
| 1777584085 | 9.44° C | 94% | 1008.8 hPa | 2.03 mm | - | - | - |
| 1777581649 | 9.44° C | 94% | 1008.7 hPa | 1.52 mm | - | - | - |
| 1777578021 | 10° C | 93% | 1008.8 hPa | 0.51 mm | - | - | - |
| 1777576275 | 10° C | 94% | 1008.8 hPa | 0.51 mm | - | - | - |
| 1777570838 | 9.44° C | 92% | 1008.9 hPa | 2.03 mm | - | - | - |
| 1777569675 | 9.44° C | 93% | 1009 hPa | 1.78 mm | - | - | - |
| 1777561258 | 9.44° C | 93% | 1009.2 hPa | 0.51 mm | - | - | - |
| 1777560661 | 9.44° C | 93% | 1009.4 hPa | 0.51 mm | - | - | - |
| 1777554074 | 8.33° C | 94% | 1009.9 hPa | 4.57 mm | - | - | - |
| 1777551017 | 8.33° C | 93% | 1010.2 hPa | 4.83 mm | - | - | - |
| 1777549869 | 8.33° C | 92% | 1010.1 hPa | 4.32 mm | - | - | - |
* Rain latest hour (hover to see other rain measurements)
** Current wind speed in m/s (hover to see current wind gust speed)